ADDS METAR Data INFO
IDs: Format: Raw Decoded Include TAF

Data at: 0626 UTC 15 Dec 2017

KVWU 150615Z AUTO 32007KT 10SM BKN020 M12/M14 A2992 RMK AO2
KVWU 150555Z AUTO 32009KT 7SM -SN OVC020 M11/M13 A2993 RMK AO2
KVWU 150535Z AUTO 31007KT 7SM -SN OVC018 M11/M13 A2993 RMK AO2
KVWU 150515Z AUTO 30008KT 10SM OVC018 M11/M13 A2993 RMK AO2
KVWU 150455Z AUTO 30010KT 10SM -SN OVC018 M11/M12 A2994 RMK AO2
KVWU 150435Z AUTO 30007KT 10SM -SN OVC018 M11/M12 A2994 RMK AO2
KVWU 150415Z AUTO 30005KT 10SM -SN OVC014 M10/M12 A2994 RMK AO2
KVWU 150355Z AUTO 29005KT 10SM -SN OVC014 M11/M12 A2994 RMK AO2
KVWU 150335Z AUTO 29005KT 10SM -SN OVC016 M11/M12 A2994 RMK AO2
KVWU 150315Z AUTO 27006KT 10SM -SN SCT018 OVC028 M11/M12 A2994 RMK AO2
KVWU 150255Z AUTO 28007KT 7SM -SN OVC028 M11/M12 A2995 RMK AO2
KVWU 150235Z AUTO 28006KT 5SM -SN SCT014 OVC026 M11/M12 A2995 RMK AO2
KVWU 150215Z AUTO 28005KT 10SM -SN BKN014 OVC026 M11/M12 A2996 RMK AO2
KVWU 150155Z AUTO 29006KT 5SM -SN OVC016 M11/M12 A2997 RMK AO2
KVWU 150135Z AUTO 28007KT 7SM -SN BKN020 OVC036 M11/M13 A2997 RMK AO2
KVWU 150115Z AUTO 29007KT 7SM -SN OVC036 M11/M13 A2997 RMK AO2
KVWU 150055Z AUTO 29008KT 7SM -SN OVC038 M11/M13 A2997 RMK AO2
KVWU 150035Z AUTO 29008KT 7SM -SN OVC038 M11/M13 A2997 RMK AO2
KVWU 150015Z AUTO 29010KT 10SM -SN OVC038 M11/M13 A2997 RMK AO2
KVWU 142355Z AUTO 28010KT 7SM -SN OVC040 M11/M13 A2997 RMK AO2
KVWU 142335Z AUTO 28009KT 7SM -SN SCT033 OVC042 M11/M13 A2998 RMK AO2
KVWU 142315Z AUTO 29009G14KT 10SM -SN SCT025 SCT033 OVC042 M11/M13 A2998 RMK AO2
KVWU 142255Z AUTO 28009KT 10SM -SN BKN025 OVC042 M11/M13 A2998 RMK AO2
KVWU 142235Z AUTO 27009KT 10SM -SN OVC025 M11/M13 A2997 RMK AO2
KVWU 142215Z AUTO 28007KT 10SM OVC025 M11/M13 A2997 RMK AO2
KVWU 142155Z AUTO 27005KT 7SM -SN OVC025 M11/M12 A2997 RMK AO2
KVWU 142135Z AUTO 27004KT 7SM -SN OVC025 M11/M13 A2997 RMK AO2
KVWU 142115Z AUTO 28005KT 10SM -SN OVC023 M10/M13 A2997 RMK AO2
KVWU 142055Z AUTO 29007KT 7SM -SN OVC019 M10/M13 A2998 RMK AO2
KVWU 142035Z AUTO 29006KT 7SM -SN OVC021 M10/M13 A2997 RMK AO2
KVWU 142015Z AUTO 28008KT 10SM -SN OVC021 M10/M13 A2997 RMK AO2
KVWU 141955Z AUTO 29004KT 5SM -SN OVC019 M10/M12 A2997 RMK AO2
KVWU 141935Z AUTO 33004KT 5SM -SN OVC019 M10/M13 A2997 RMK AO2
KVWU 141915Z AUTO 30007KT 10SM -SN BKN019 BKN034 OVC055 M10/M13 A2998 RMK AO2
KVWU 141855Z AUTO 29009KT 7SM -SN BKN017 OVC090 M10/M13 A2998 RMK AO2
KVWU 141835Z AUTO 31005KT 5SM -SN BKN017 M10/M13 A2998 RMK AO2
KVWU 141815Z AUTO 31007KT 5SM -SN OVC017 M10/M12 A2998 RMK AO2
KVWU 141755Z AUTO 30007KT 7SM -SN OVC017 M10/M12 A2999 RMK AO2
KVWU 141735Z AUTO 31005KT 7SM -SN OVC015 M10/M12 A2999 RMK AO2
KVWU 141715Z AUTO 32005KT 4SM -SN OVC015 M10/M13 A2999 RMK AO2
KVWU 141655Z AUTO 32009KT 3SM -SN OVC015 M10/M12 A2999 RMK AO2
KVWU 141635Z AUTO 31009KT 7SM -SN OVC017 M10/M12 A3000 RMK AO2
KVWU 141615Z AUTO 30008KT 5SM -SN OVC017 M10/M12 A2999 RMK AO2
KVWU 141555Z AUTO 28006KT 4SM -SN OVC017 M11/M12 A2998 RMK AO2
KVWU 141535Z AUTO 28005KT 7SM -SN BKN017 BKN034 OVC043 M11/M12 A2998 RMK AO2
KVWU 141515Z AUTO 27006KT 5SM -SN SCT036 BKN043 OVC050 M11/M12 A2997 RMK AO2
KVWU 141455Z AUTO 26006KT 7SM -SN SCT020 BKN040 OVC055 M11/M12 A2997 RMK AO2
KVWU 141435Z AUTO 26007KT 3SM -SN BKN020 BKN026 OVC033 M10/M12 A2996 RMK AO2
KVWU 141415Z AUTO 26006KT 1 3/4SM -SN BKN016 BKN024 OVC030 M10/M11 A2995 RMK AO2
KVWU 141355Z AUTO 25006KT 4SM -SN SCT010 BKN016 OVC023 M10/M11 A2995 RMK AO2
KVWU 141335Z AUTO 25007KT 2 1/2SM -SN SCT010 BKN014 OVC024 M10/M11 A2995 RMK AO2
KVWU 141315Z AUTO 25006KT 2 1/2SM -SN BKN018 OVC023 M10/M11 A2995 RMK AO2
KVWU 141255Z AUTO 25007KT 2 1/2SM -SN SCT010 OVC016 M10/M11 A2995 RMK AO2
KVWU 141235Z AUTO 25006KT 2SM -SN SCT010 OVC016 M10/M11 A2994 RMK AO2
KVWU 141215Z AUTO 25006KT 2 1/2SM -SN BKN014 OVC021 M10/M12 A2994 RMK AO2
KVWU 141155Z AUTO 23006KT 4SM -SN OVC014 M11/M12 A2994 RMK AO2
KVWU 141135Z AUTO 23005KT 2 1/2SM -SN OVC014 M11/M12 A2994 RMK AO2
KVWU 141115Z AUTO 22005KT 3SM -SN OVC012 M11/M12 A2994 RMK AO2
KVWU 141055Z AUTO 23005KT 7SM -SN OVC012 M11/M12 A2994 RMK AO2
KVWU 141035Z AUTO 23006KT 5SM -SN OVC014 M11/M12 A2994 RMK AO2
KVWU 141015Z AUTO 24006KT 2 1/2SM -SN BKN013 BKN044 OVC055 M11/M12 A2994 RMK AO2
KVWU 140955Z AUTO 25005KT 7SM -SN BKN010 BKN015 OVC055 M11/M12 A2995 RMK AO2
KVWU 140935Z AUTO 27006KT 10SM OVC010 M11/M12 A2995 RMK AO2
KVWU 140915Z AUTO 27009KT 10SM OVC010 M11/M12 A2995 RMK AO2
KVWU 140855Z AUTO 28007KT 10SM -SN OVC010 M11/M12 A2995 RMK AO2
KVWU 140835Z AUTO 27005KT 10SM -SN OVC010 M11/M12 A2996 RMK AO2
KVWU 140815Z AUTO 29003KT 10SM -SN OVC010 M11/M12 A2995 RMK AO2
KVWU 140755Z AUTO 27005KT 10SM -SN OVC010 M11/M12 A2995 RMK AO2
KVWU 140735Z AUTO 24005KT 10SM -SN OVC010 M11/M12 A2995 RMK AO2
KVWU 140715Z AUTO 26004KT 10SM -SN OVC008 M11/M12 A2994 RMK AO2
KVWU 140655Z AUTO 27004KT 10SM -SN OVC008 M11/M12 A2994 RMK AO2
KVWU 140635Z AUTO 29004KT 7SM -SN OVC006 M12/M12 A2994 RMK AO2
KVWU 140615Z AUTO 30003KT 7SM -SN OVC006 M12/M13 A2993 RMK AO2
KVWU 140555Z AUTO 00000KT 7SM -SN OVC006 M12/M12 A2994 RMK AO2
KVWU 140535Z AUTO 00000KT 3SM -SN OVC006 M11/M12 A2995 RMK AO2
KVWU 140515Z AUTO 23004KT 7SM -SN OVC006 M11/M12 A2995 RMK AO2
KVWU 140455Z AUTO 00000KT 7SM -SN OVC006 M11/M12 A2994 RMK AO2
KVWU 140435Z AUTO 00000KT 10SM -SN OVC006 M11/M12 A2994 RMK AO2
KVWU 140415Z AUTO 00000KT 7SM -SN OVC008 M11/M12 A2994 RMK AO2
KVWU 140355Z AUTO 00000KT 10SM -SN OVC008 M11/M12 A2994 RMK AO2
KVWU 140335Z AUTO 00000KT 10SM -SN OVC008 M11/M12 A2993 RMK AO2
KVWU 140315Z AUTO 01003KT 10SM OVC010 M11/M12 A2993 RMK AO2
KVWU 140255Z AUTO 00000KT 10SM OVC010 M11/M12 A2993 RMK AO2
KVWU 140235Z AUTO 00000KT 10SM OVC012 M11/M12 A2993 RMK AO2
KVWU 140215Z AUTO 00000KT 10SM -SN OVC012 M11/M12 A2993 RMK AO2
KVWU 140155Z AUTO 00000KT 10SM -SN OVC012 M11/M12 A2993 RMK AO2
KVWU 140135Z AUTO 32004KT 10SM -SN OVC012 M11/M12 A2993 RMK AO2
KVWU 140115Z AUTO 32004KT 10SM -SN OVC014 M10/M12 A2993 RMK AO2
KVWU 140055Z AUTO 31004KT 10SM OVC014 M10/M12 A2992 RMK AO2
KVWU 140035Z AUTO 10SM -SN OVC014 M10/M12 A2992 RMK AO2
KVWU 140015Z AUTO 33005KT 10SM OVC014 M09/M12 A2992 RMK AO2
KVWU 132355Z AUTO 33004KT 10SM -SN OVC014 M09/M11 A2991 RMK AO2
KVWU 132335Z AUTO 32004KT 10SM OVC014 M09/M11 A2989 RMK AO2
KVWU 132315Z AUTO 33004KT 10SM OVC014 M09/M11 A2988 RMK AO2
KVWU 132255Z AUTO 33006KT 10SM OVC014 M08/M11 A2987 RMK AO2
KVWU 132235Z AUTO 34004KT 10SM OVC016 M08/M11 A2985 RMK AO2
KVWU 132215Z AUTO 34004KT 10SM OVC016 M08/M11 A2983 RMK AO2
KVWU 132155Z AUTO 36004KT 10SM OVC016 M08/M11 A2982 RMK AO2
KVWU 132135Z AUTO 35006KT 10SM OVC016 M08/M11 A2981 RMK AO2
KVWU 132115Z AUTO 36005KT 10SM OVC016 M08/M11 A2980 RMK AO2
KVWU 132055Z AUTO 36006KT 10SM OVC016 M08/M11 A2980 RMK AO2
KVWU 132035Z AUTO 36005KT 10SM BKN014 OVC021 M08/M11 A2977 RMK AO2
KVWU 132015Z AUTO 36005KT 7SM -SN BKN014 OVC038 M08/M11 A2975 RMK AO2
KVWU 131955Z AUTO 36004KT 5SM HZ SCT016 SCT032 OVC042 M08/M11 A2974 RMK AO2
KVWU 131935Z AUTO 01006KT 5SM -SN BKN018 BKN029 OVC060 M08/M11 A2974 RMK AO2
KVWU 131915Z AUTO 34007KT 4SM -SN BKN018 BKN026 OVC050 M08/M11 A2975 RMK AO2
KVWU 131855Z AUTO 34007KT 3SM -SN OVC016 M08/M11 A2974 RMK AO2
KVWU 131835Z AUTO 33006KT 4SM -SN BKN016 M08/M11 A2973 RMK AO2